Wetterstation Vordersexau
Wetterdaten: Woche 18.07.11 - 24.07.11 (KW29)
Datum Zeit Temp. A. Feuchte A. Luftdruck Regen Wind Richtung Taupunkt Windchill Windben
18.07.2011 00:00 12,4 C 82 % 1005,7 hPa 0,0 l/m 0,0 km/h SW 9,4 C 12,4 C 0,0 km/h
18.07.2011 01:00 14,5 C 76 % 1005,7 hPa 0,0 l/m 13,6 km/h W 10,3 C 11,1 C 7,6 km/h
18.07.2011 02:00 14,6 C 76 % 1005,6 hPa 0,0 l/m 3,2 km/h W-SW 10,4 C 14,6 C 1,8 km/h
18.07.2011 03:00 14,4 C 74 % 1005,5 hPa 0,0 l/m 20,1 km/h SW 9,8 C 8,9 C 11,2 km/h
18.07.2011 04:00 14,2 C 75 % 1005,3 hPa 0,0 l/m 42,1 km/h W-SW 9,8 C 4,9 C 23,4 km/h
18.07.2011 05:00 14,6 C 74 % 1005,1 hPa 0,0 l/m 24,6 km/h W-SW 10,0 C 8,1 C 13,7 km/h
18.07.2011 06:00 14,6 C 74 % 1005,0 hPa 0,0 l/m 23,3 km/h W-SW 10,0 C 8,4 C 13,0 km/h
18.07.2011 07:00 14,6 C 74 % 1005,6 hPa 0,0 l/m 11,0 km/h S-SW 10,0 C 12,2 C 6,1 km/h
18.07.2011 08:00 14,9 C 74 % 1006,0 hPa 0,0 l/m 31,8 km/h SW 10,3 C 7,3 C 17,6 km/h
18.07.2011 09:00 17,4 C 65 % 1006,3 hPa 0,0 l/m 19,4 km/h W-SW 10,8 C 13,0 C 10,8 km/h
18.07.2011 10:00 18,9 C 60 % 1006,0 hPa 0,0 l/m 23,3 km/h S-SW 11,0 C 14,2 C 13,0 km/h
18.07.2011 11:00 21,5 C 54 % 1005,9 hPa 0,0 l/m 26,6 km/h SW 11,8 C 17,2 C 14,8 km/h
18.07.2011 12:00 20,2 C 56 % 1006,2 hPa 0,0 l/m 24,0 km/h S-SW 11,1 C 15,8 C 13,3 km/h
18.07.2011 13:00 21,2 C 55 % 1006,1 hPa 0,0 l/m 31,8 km/h W-SW 11,8 C 16,2 C 17,6 km/h
18.07.2011 14:00 20,8 C 50 % 1005,7 hPa 0,0 l/m 44,1 km/h NW 10,0 C 14,6 C 24,5 km/h
18.07.2011 15:00 23,4 C 48 % 1005,7 hPa 0,0 l/m 22,0 km/h W-SW 11,8 C 20,3 C 12,2 km/h
18.07.2011 16:00 24,1 C 43 % 1005,6 hPa 0,0 l/m 22,0 km/h W 10,7 C 21,3 C 12,2 km/h
18.07.2011 17:00 24,3 C 40 % 1005,6 hPa 0,0 l/m 25,3 km/h W 9,8 C 21,2 C 14,0 km/h
18.07.2011 18:00 22,8 C 50 % 1005,7 hPa 0,0 l/m 2,6 km/h W-NW 11,8 C 22,8 C 1,4 km/h
18.07.2011 19:00 20,5 C 48 % 1005,6 hPa 0,0 l/m 11,7 km/h W 9,1 C 18,7 C 6,5 km/h
18.07.2011 20:00 17,0 C 56 % 1005,6 hPa 0,0 l/m 0,0 km/h S-SO 8,2 C 17,0 C 0,0 km/h
18.07.2011 21:00 13,5 C 70 % 1005,7 hPa 0,0 l/m 2,6 km/h O-NO 8,1 C 13,5 C 1,4 km/h
18.07.2011 22:00 12,0 C 76 % 1006,1 hPa 0,0 l/m 0,0 km/h O-NO 7,9 C 12,0 C 0,0 km/h
18.07.2011 23:00 10,9 C 80 % 1006,5 hPa 0,0 l/m 0,0 km/h S 7,6 C 10,9 C 0,0 km/h
19.07.2011 00:00 10,6 C 82 % 1005,9 hPa 0,0 l/m 0,0 km/h O-NO 7,7 C 10,6 C 0,0 km/h
19.07.2011 01:00 10,1 C 83 % 1005,5 hPa 0,0 l/m 0,0 km/h O-NO 7,3 C 10,1 C 0,0 km/h
19.07.2011 02:00 9,9 C 84 % 1005,1 hPa 0,0 l/m 0,0 km/h S-SO 7,3 C 9,9 C 0,0 km/h
19.07.2011 03:00 9,6 C 84 % 1004,1 hPa 0,0 l/m 0,0 km/h N-NO 7,0 C 9,6 C 0,0 km/h
19.07.2011 04:00 9,7 C 85 % 1003,5 hPa 0,0 l/m 0,0 km/h S-SO 7,3 C 9,7 C 0,0 km/h
19.07.2011 05:00 9,1 C 84 % 1003,0 hPa 0,0 l/m 0,0 km/h SO 6,5 C 9,1 C 0,0 km/h
19.07.2011 06:00 9,0 C 85 % 1003,0 hPa 0,0 l/m 0,0 km/h NO 6,6 C 9,0 C 0,0 km/h
19.07.2011 07:00 9,9 C 85 % 1002,4 hPa 0,0 l/m 0,0 km/h W-SW 7,5 C 9,9 C 0,0 km/h
19.07.2011 08:00 14,4 C 81 % 1003,2 hPa 0,0 l/m 0,0 km/h N-NO 11,2 C 14,4 C 0,0 km/h
19.07.2011 09:00 21,1 C 57 % 1002,7 hPa 0,0 l/m 0,0 km/h W-NW 12,2 C 21,1 C 0,0 km/h
19.07.2011 10:00 21,9 C 59 % 1002,2 hPa 0,0 l/m 0,0 km/h W-SW 13,5 C 21,9 C 0,0 km/h
19.07.2011 11:00 22,9 C 56 % 1002,3 hPa 0,0 l/m 11,0 km/h N-NO 13,6 C 21,6 C 6,1 km/h
19.07.2011 12:00 23,2 C 54 % 1002,1 hPa 0,0 l/m 0,0 km/h O-SO 13,4 C 23,2 C 0,0 km/h
19.07.2011 13:00 24,6 C 53 % 1001,8 hPa 0,0 l/m 0,0 km/h W 14,4 C 24,6 C 0,0 km/h
19.07.2011 14:00 22,9 C 55 % 1001,9 hPa 0,0 l/m 0,0 km/h W 13,4 C 22,9 C 0,0 km/h
19.07.2011 15:00 20,5 C 62 % 1002,2 hPa 0,0 l/m 1,9 km/h W 13,0 C 20,5 C 1,1 km/h
19.07.2011 16:00 16,8 C 77 % 1003,0 hPa 0,0 l/m 0,0 km/h SO 12,7 C 16,8 C 0,0 km/h
19.07.2011 17:00 14,6 C 83 % 1004,0 hPa 0,7 l/m 6,5 km/h SO 11,7 C 14,6 C 3,6 km/h
19.07.2011 18:00 14,8 C 83 % 1004,4 hPa 0,4 l/m 0,0 km/h SO 11,9 C 14,8 C 0,0 km/h
19.07.2011 19:00 14,6 C 85 % 1004,5 hPa 0,7 l/m 3,2 km/h S-SO 12,1 C 14,6 C 1,8 km/h
19.07.2011 20:00 14,1 C 85 % 1004,8 hPa 0,0 l/m 1,9 km/h S 11,6 C 14,1 C 1,1 km/h
19.07.2011 21:00 13,8 C 84 % 1005,0 hPa 0,0 l/m 17,5 km/h W-SW 11,1 C 8,9 C 9,7 km/h
19.07.2011 22:00 13,9 C 81 % 1005,8 hPa 0,0 l/m 25,9 km/h S 10,7 C 6,9 C 14,4 km/h
19.07.2011 23:00 13,6 C 79 % 1006,2 hPa 0,0 l/m 32,4 km/h SW 10,0 C 5,3 C 18,0 km/h
20.07.2011 00:00 13,6 C 78 % 1006,4 hPa 0,0 l/m 21,4 km/h S-SW 9,8 C 7,6 C 11,9 km/h
20.07.2011 01:00 13,5 C 78 % 1006,5 hPa 0,0 l/m 18,8 km/h W-SW 9,7 C 8,1 C 10,4 km/h
20.07.2011 02:00 13,4 C 78 % 1006,0 hPa 0,0 l/m 24,6 km/h SW 9,6 C 6,5 C 13,7 km/h
20.07.2011 03:00 13,0 C 80 % 1006,1 hPa 0,0 l/m 22,7 km/h SW 9,6 C 6,4 C 12,6 km/h
20.07.2011 04:00 12,6 C 83 % 1006,0 hPa 0,0 l/m 21,4 km/h W-SW 9,8 C 6,3 C 11,9 km/h
20.07.2011 05:00 12,8 C 84 % 1006,5 hPa 0,0 l/m 16,8 km/h W 10,2 C 7,9 C 9,4 km/h
20.07.2011 06:00 12,9 C 84 % 1006,8 hPa 0,0 l/m 9,1 km/h W-SW 10,3 C 11,3 C 5,0 km/h
20.07.2011 07:00 12,6 C 85 % 1007,0 hPa 0,4 l/m 18,1 km/h W-SW 10,1 C 7,2 C 10,1 km/h
20.07.2011 08:00 13,3 C 84 % 1007,2 hPa 0,0 l/m 8,4 km/h W-SW 10,7 C 12,1 C 4,7 km/h
20.07.2011 09:00 14,4 C 83 % 1007,5 hPa 0,0 l/m 18,8 km/h SW 11,5 C 9,3 C 10,4 km/h
20.07.2011 10:00 13,8 C 85 % 1007,9 hPa 0,0 l/m 17,5 km/h W-SW 11,3 C 8,9 C 9,7 km/h
20.07.2011 11:00 13,6 C 85 % 1008,6 hPa 0,7 l/m 13,6 km/h W-SW 11,1 C 10,0 C 7,6 km/h
20.07.2011 12:00 14,5 C 85 % 1009,2 hPa 0,0 l/m 11,7 km/h W-SW 12,0 C 11,8 C 6,5 km/h
20.07.2011 13:00 14,3 C 85 % 1009,4 hPa 0,4 l/m 7,8 km/h W-SW 11,8 C 13,5 C 4,3 km/h
20.07.2011 14:00 14,6 C 86 % 1009,8 hPa 0,0 l/m 1,3 km/h S-SW 12,3 C 14,6 C 0,7 km/h
20.07.2011 15:00 16,3 C 81 % 1010,0 hPa 0,0 l/m 1,9 km/h N-NO 13,0 C 16,3 C 1,1 km/h
20.07.2011 16:00 16,9 C 80 % 1010,1 hPa 0,0 l/m 0,0 km/h SO 13,4 C 16,9 C 0,0 km/h
20.07.2011 17:00 19,1 C 76 % 1010,0 hPa 0,0 l/m 11,0 km/h SO 14,8 C 17,3 C 6,1 km/h
20.07.2011 18:00 19,3 C 72 % 1009,7 hPa 0,0 l/m 1,3 km/h S-SO 14,1 C 19,3 C 0,7 km/h
20.07.2011 19:00 18,9 C 71 % 1009,7 hPa 0,0 l/m 1,9 km/h SO 13,5 C 18,9 C 1,1 km/h
20.07.2011 20:00 16,2 C 79 % 1009,7 hPa 0,0 l/m 0,0 km/h NO 12,6 C 16,2 C 0,0 km/h
20.07.2011 21:00 14,3 C 84 % 1010,0 hPa 0,0 l/m 0,0 km/h NO 11,6 C 14,3 C 0,0 km/h
20.07.2011 22:00 13,8 C 85 % 1010,4 hPa 0,0 l/m 0,0 km/h N-NO 11,3 C 13,8 C 0,0 km/h
20.07.2011 23:00 13,2 C 85 % 1010,5 hPa 0,0 l/m 0,0 km/h NO 10,7 C 13,2 C 0,0 km/h
21.07.2011 00:00 13,1 C 85 % 1010,6 hPa 0,0 l/m 0,0 km/h NO 10,6 C 13,1 C 0,0 km/h
21.07.2011 01:00 13,1 C 86 % 1010,4 hPa 0,0 l/m 0,0 km/h SO 10,8 C 13,1 C 0,0 km/h
21.07.2011 02:00 12,3 C 86 % 1010,0 hPa 0,0 l/m 0,0 km/h O-NO 10,0 C 12,3 C 0,0 km/h
21.07.2011 03:00 11,4 C 85 % 1009,6 hPa 0,0 l/m 0,0 km/h O-SO 9,0 C 11,4 C 0,0 km/h
21.07.2011 04:00 11,2 C 85 % 1008,8 hPa 0,0 l/m 0,0 km/h SO 8,8 C 11,2 C 0,0 km/h
21.07.2011 05:00 10,6 C 85 % 1008,5 hPa 0,0 l/m 0,0 km/h O-SO 8,2 C 10,6 C 0,0 km/h
21.07.2011 06:00 11,1 C 84 % 1008,4 hPa 0,0 l/m 0,0 km/h O-NO 8,5 C 11,1 C 0,0 km/h
21.07.2011 07:00 13,0 C 83 % 1008,1 hPa 0,0 l/m 0,0 km/h SO 10,2 C 13,0 C 0,0 km/h
21.07.2011 08:00 19,4 C 72 % 1007,8 hPa 0,0 l/m 0,0 km/h N-NO 14,2 C 19,4 C 0,0 km/h
21.07.2011 09:00 16,1 C 81 % 1008,1 hPa 0,4 l/m 0,0 km/h N-NO 12,8 C 16,1 C 0,0 km/h
21.07.2011 10:00 18,6 C 71 % 1008,0 hPa 0,0 l/m 0,0 km/h N-NO 13,2 C 18,6 C 0,0 km/h
21.07.2011 11:00 18,2 C 75 % 1008,2 hPa 0,0 l/m 0,0 km/h W 13,7 C 18,2 C 0,0 km/h
21.07.2011 12:00 16,4 C 80 % 1008,4 hPa 0,0 l/m 0,6 km/h N-NW 12,9 C 16,4 C 0,4 km/h
21.07.2011 13:00 18,1 C 79 % 1008,4 hPa 0,7 l/m 0,0 km/h W 14,4 C 18,1 C 0,0 km/h
21.07.2011 14:00 23,1 C 63 % 1008,3 hPa 0,0 l/m 13,6 km/h W-NW 15,7 C 21,3 C 7,6 km/h
21.07.2011 15:00 18,9 C 70 % 1008,3 hPa 0,0 l/m 5,2 km/h W-NW 13,3 C 18,9 C 2,9 km/h
21.07.2011 16:00 21,4 C 65 % 1008,0 hPa 0,0 l/m 9,7 km/h W-SW 14,5 C 20,3 C 5,4 km/h
21.07.2011 17:00 22,3 C 63 % 1007,9 hPa 0,0 l/m 7,1 km/h S-SW 14,9 C 22,1 C 4,0 km/h
21.07.2011 18:00 22,8 C 60 % 1007,6 hPa 0,0 l/m 9,7 km/h W-SW 14,6 C 21,8 C 5,4 km/h
21.07.2011 19:00 22,0 C 62 % 1007,6 hPa 0,0 l/m 9,7 km/h W-SW 14,4 C 20,9 C 5,4 km/h
21.07.2011 20:00 18,5 C 69 % 1007,7 hPa 0,0 l/m 9,7 km/h S-SW 12,7 C 17,1 C 5,4 km/h
21.07.2011 21:00 17,3 C 74 % 1008,2 hPa 0,0 l/m 0,0 km/h S 12,6 C 17,3 C 0,0 km/h
21.07.2011 22:00 16,4 C 77 % 1008,7 hPa 0,0 l/m 0,0 km/h NO 12,4 C 16,4 C 0,0 km/h
21.07.2011 23:00 15,6 C 82 % 1008,7 hPa 0,0 l/m 0,0 km/h N-NO 12,5 C 15,6 C 0,0 km/h
22.07.2011 00:00 14,9 C 83 % 1008,7 hPa 0,0 l/m 0,0 km/h N-NO 12,0 C 14,9 C 0,0 km/h
22.07.2011 01:00 14,9 C 84 % 1008,8 hPa 0,0 l/m 0,0 km/h O-SO 12,2 C 14,9 C 0,0 km/h
22.07.2011 02:00 14,9 C 85 % 1008,5 hPa 0,0 l/m 0,0 km/h SW 12,4 C 14,9 C 0,0 km/h
22.07.2011 03:00 15,5 C 84 % 1008,6 hPa 0,0 l/m 0,0 km/h W-NW 12,8 C 15,5 C 0,0 km/h
22.07.2011 04:00 15,3 C 85 % 1008,6 hPa 0,0 l/m 0,0 km/h W-NW 12,8 C 15,3 C 0,0 km/h
22.07.2011 05:00 14,8 C 85 % 1008,8 hPa 0,0 l/m 0,0 km/h W 12,3 C 14,8 C 0,0 km/h
22.07.2011 06:00 14,9 C 85 % 1008,9 hPa 0,0 l/m 0,0 km/h W-SW 12,4 C 14,9 C 0,0 km/h
22.07.2011 07:00 15,6 C 85 % 1009,1 hPa 0,0 l/m 5,8 km/h W-SW 13,1 C 15,6 C 3,2 km/h
22.07.2011 08:00 16,4 C 85 % 1009,2 hPa 0,0 l/m 9,7 km/h W-SW 13,9 C 14,8 C 5,4 km/h
22.07.2011 09:00 17,6 C 83 % 1009,3 hPa 0,0 l/m 2,6 km/h S-SW 14,7 C 17,6 C 1,4 km/h
22.07.2011 10:00 20,6 C 73 % 1009,4 hPa 0,0 l/m 6,5 km/h O-NO 15,6 C 20,6 C 3,6 km/h
22.07.2011 11:00 17,5 C 82 % 1009,5 hPa 0,4 l/m 0,0 km/h S-SO 14,4 C 17,5 C 0,0 km/h
22.07.2011 12:00 21,1 C 71 % 1009,3 hPa 0,0 l/m 16,8 km/h SO 15,6 C 18,2 C 9,4 km/h
22.07.2011 13:00 23,3 C 65 % 1009,2 hPa 0,0 l/m 23,3 km/h O 16,3 C 20,0 C 13,0 km/h
22.07.2011 14:00 21,1 C 64 % 1008,8 hPa 0,0 l/m 5,2 km/h SO 14,0 C 21,1 C 2,9 km/h
22.07.2011 15:00 16,7 C 82 % 1009,6 hPa 6,4 l/m 0,0 km/h S-SO 13,6 C 16,7 C 0,0 km/h
22.07.2011 16:00 22,9 C 72 % 1009,3 hPa 0,4 l/m 7,1 km/h S 17,6 C 22,7 C 4,0 km/h
22.07.2011 17:00 24,2 C 57 % 1009,0 hPa 0,0 l/m 0,0 km/h N-NO 15,1 C 24,2 C 0,0 km/h
22.07.2011 18:00 18,4 C 78 % 1009,3 hPa 0,4 l/m 2,6 km/h O-NO 14,5 C 18,4 C 1,4 km/h
22.07.2011 19:00 16,6 C 82 % 1009,7 hPa 0,4 l/m 0,0 km/h SO 13,5 C 16,6 C 0,0 km/h
22.07.2011 20:00 17,2 C 83 % 1009,4 hPa 0,7 l/m 2,6 km/h S-SO 14,3 C 17,2 C 1,4 km/h
22.07.2011 21:00 14,4 C 85 % 1009,8 hPa 0,0 l/m 0,0 km/h SO 11,9 C 14,4 C 0,0 km/h
22.07.2011 22:00 13,5 C 85 % 1010,3 hPa 0,0 l/m 0,6 km/h SO 11,0 C 13,5 C 0,4 km/h
22.07.2011 23:00 13,6 C 85 % 1010,5 hPa 0,0 l/m 0,0 km/h S-SO 11,1 C 13,6 C 0,0 km/h
23.07.2011 00:00 13,9 C 84 % 1010,5 hPa 0,0 l/m 0,0 km/h O 11,2 C 13,9 C 0,0 km/h
23.07.2011 01:00 14,2 C 84 % 1010,2 hPa 0,0 l/m 0,0 km/h O-NO 11,5 C 14,2 C 0,0 km/h
23.07.2011 02:00 14,1 C 84 % 1010,2 hPa 0,0 l/m 0,0 km/h O-NO 11,4 C 14,1 C 0,0 km/h
23.07.2011 03:00 14,1 C 84 % 1009,9 hPa 0,4 l/m 0,0 km/h NW 11,4 C 14,1 C 0,0 km/h
23.07.2011 04:00 13,9 C 83 % 1009,7 hPa 2,1 l/m 8,4 km/h W-NW 11,1 C 12,7 C 4,7 km/h
23.07.2011 05:00 13,1 C 82 % 1010,0 hPa 1,1 l/m 0,0 km/h W 10,1 C 13,1 C 0,0 km/h
23.07.2011 06:00 12,8 C 82 % 1010,2 hPa 0,0 l/m 0,0 km/h N-NW 9,8 C 12,8 C 0,0 km/h
23.07.2011 07:00 12,7 C 81 % 1010,5 hPa 0,7 l/m 0,0 km/h N-NO 9,5 C 12,7 C 0,0 km/h
23.07.2011 08:00 13,6 C 85 % 1010,9 hPa 0,0 l/m 0,0 km/h N-NO 11,1 C 13,6 C 0,0 km/h
23.07.2011 09:00 16,6 C 79 % 1011,0 hPa 0,0 l/m 1,9 km/h N 12,9 C 16,6 C 1,1 km/h
23.07.2011 10:00 18,4 C 71 % 1010,9 hPa 0,0 l/m 0,0 km/h N-NO 13,0 C 18,4 C 0,0 km/h
23.07.2011 11:00 22,1 C 56 % 1010,8 hPa 0,0 l/m 8,4 km/h W 12,9 C 21,4 C 4,7 km/h
23.07.2011 12:00 18,3 C 60 % 1010,7 hPa 0,0 l/m 1,9 km/h W 10,4 C 18,3 C 1,1 km/h
23.07.2011 13:00 20,8 C 55 % 1010,3 hPa 0,0 l/m 17,5 km/h NO 11,4 C 17,7 C 9,7 km/h
23.07.2011 14:00 23,3 C 43 % 1009,9 hPa 0,0 l/m 18,8 km/h W-NW 10,0 C 20,6 C 10,4 km/h
23.07.2011 15:00 22,2 C 41 % 1009,7 hPa 0,0 l/m 8,4 km/h SW 8,3 C 21,5 C 4,7 km/h
23.07.2011 16:00 19,4 C 53 % 1009,8 hPa 0,0 l/m 5,2 km/h S-SO 9,6 C 19,4 C 2,9 km/h
23.07.2011 17:00 25,8 C 42 % 1009,3 hPa 0,0 l/m 8,4 km/h W 11,9 C 25,4 C 4,7 km/h
23.07.2011 18:00 26,9 C 35 % 1008,3 hPa 0,0 l/m 0,0 km/h SW 10,1 C 26,9 C 0,0 km/h
23.07.2011 19:00 23,4 C 41 % 1008,3 hPa 0,0 l/m 15,6 km/h SO 9,4 C 21,3 C 8,6 km/h
23.07.2011 20:00 17,1 C 64 % 1008,2 hPa 0,0 l/m 0,0 km/h NO 10,2 C 17,1 C 0,0 km/h
23.07.2011 21:00 12,2 C 80 % 1009,5 hPa 0,7 l/m 0,0 km/h S 8,9 C 12,2 C 0,0 km/h
23.07.2011 22:00 11,8 C 84 % 1010,1 hPa 0,4 l/m 13,0 km/h O 9,2 C 8,1 C 7,2 km/h
23.07.2011 23:00 11,6 C 85 % 1010,0 hPa 0,0 l/m 0,0 km/h N-NO 9,2 C 11,6 C 0,0 km/h
24.07.2011 00:00 11,3 C 85 % 1010,0 hPa 0,0 l/m 0,0 km/h N-NO 8,9 C 11,3 C 0,0 km/h
24.07.2011 01:00 11,8 C 85 % 1010,3 hPa 0,0 l/m 0,0 km/h W-SW 9,4 C 11,8 C 0,0 km/h
24.07.2011 02:00 11,6 C 85 % 1010,6 hPa 0,0 l/m 0,0 km/h W 9,2 C 11,6 C 0,0 km/h
24.07.2011 03:00 11,6 C 85 % 1010,6 hPa 0,0 l/m 0,0 km/h W 9,2 C 11,6 C 0,0 km/h
24.07.2011 04:00 11,5 C 86 % 1010,5 hPa 0,0 l/m 1,9 km/h W-SW 9,2 C 11,5 C 1,1 km/h
24.07.2011 05:00 11,4 C 86 % 1010,8 hPa 0,0 l/m 4,5 km/h W 9,1 C 11,4 C 2,5 km/h
24.07.2011 06:00 10,7 C 86 % 1011,3 hPa 0,0 l/m 0,0 km/h W-SW 8,5 C 10,7 C 0,0 km/h
24.07.2011 07:00 10,9 C 86 % 1012,0 hPa 0,4 l/m 24,6 km/h W-SW 8,7 C 3,2 C 13,7 km/h
24.07.2011 08:00 12,1 C 83 % 1012,5 hPa 0,0 l/m 2,6 km/h W-SW 9,3 C 12,1 C 1,4 km/h
24.07.2011 09:00 15,6 C 73 % 1012,7 hPa 0,0 l/m 22,7 km/h S-SW 10,8 C 9,9 C 12,6 km/h
24.07.2011 10:00 17,6 C 64 % 1012,6 hPa 0,0 l/m 18,8 km/h W 10,7 C 13,4 C 10,4 km/h
24.07.2011 11:00 16,6 C 63 % 1012,4 hPa 0,0 l/m 0,0 km/h W-SW 9,5 C 16,6 C 0,0 km/h
24.07.2011 12:00 16,3 C 62 % 1012,4 hPa 0,0 l/m 11,7 km/h SW 9,0 C 13,9 C 6,5 km/h
24.07.2011 13:00 16,2 C 64 % 1012,0 hPa 0,0 l/m 0,0 km/h W-SW 9,4 C 16,2 C 0,0 km/h
24.07.2011 14:00 16,5 C 65 % 1011,9 hPa 0,0 l/m 3,9 km/h S-SO 9,9 C 16,5 C 2,2 km/h
24.07.2011 15:00 14,8 C 72 % 1012,2 hPa 0,0 l/m 11,0 km/h W-SW 9,8 C 12,5 C 6,1 km/h
24.07.2011 16:00 18,1 C 58 % 1012,0 hPa 0,0 l/m 7,8 km/h SW 9,7 C 17,4 C 4,3 km/h
24.07.2011 17:00 16,5 C 62 % 1011,7 hPa 0,0 l/m 11,7 km/h SW 9,2 C 14,1 C 6,5 km/h
24.07.2011 18:00 16,6 C 62 % 1011,2 hPa 0,0 l/m 7,8 km/h W-SW 9,3 C 15,9 C 4,3 km/h
24.07.2011 19:00 15,4 C 63 % 1010,9 hPa 0,0 l/m 18,8 km/h S-SO 8,4 C 10,6 C 10,4 km/h
24.07.2011 20:00 14,4 C 68 % 1011,1 hPa 0,0 l/m 5,8 km/h SO 8,6 C 14,4 C 3,2 km/h
24.07.2011 21:00 13,9 C 71 % 1011,0 hPa 0,0 l/m 3,2 km/h N-NO 8,7 C 13,9 C 1,8 km/h
24.07.2011 22:00 12,9 C 78 % 1011,3 hPa 0,0 l/m 0,0 km/h N-NO 9,2 C 12,9 C 0,0 km/h
24.07.2011 23:00 12,6 C 80 % 1011,3 hPa 0,0 l/m 0,0 km/h O-NO 9,2 C 12,6 C 0,0 km/h
Min-Datum _ 19.07.11 23.07.11 19.07.11 - 18.07.11 - 19.07.11 24.07.11 18.07.11
_ Min-Zeit 06:30 18:30 13:30 - 00:30 - 05:30 07:30 00:30
Minimum _ 9,0 C 35 % 1001,8 hPa - 0,0 km/h - 6,5 C 3,2 C 0,0 km/h
Max-Datum _ 23.07.11 20.07.11 24.07.11 22.07.11 18.07.11 - 22.07.11 23.07.11 18.07.11
_ Max-Zeit 18:30 14:30 09:30 15:30 14:30 - 16:30 18:30 14:30
Maximum _ 26,9 C 86 % 1012,7 hPa 6,4 l/m 44,1 km/h
NW
- 17,6 C 26,9 C 24,5 km/h
NW
Durchschnitt _ 16,1 C 74 % 1008,1 hPa #18,5 l/m 7,1 km/h W-SW 11,1 C 14,7 C 3,9 km/h
www.sexauwetter.de